x

Fowey Rock, Fl (fwyf1) Weather Station

11:00pm - Wed 16th Aug 2017 All times are EDT. -4 hours from GMT.

  • Wind
    11mph, 13mph gusts
  • Sea Temp 89°f
  • Air Temp 86°f
  • Sea Pressure 1019.1mb
  • Fowey Rock, Fl
  • Fowey Rock, Fl

More Historic Weather Station data

Upgrade to MSW Pro to gain access to the past 30 days of data for over 8000 Wavebouys and Weather Stations around the globe.

Join

Comparision Forecast

View Surf forecast
   
Wed 08/16 11:00pm 11 13 mph 1019.1mb 89f 86f
10:00pm 11 13 mph 1019.1mb 89f 86f
9:00pm 10 11 mph 1018.7mb 89f 86f
8:00pm 9 10 mph 1018.2mb 89f 86f
7:00pm 8 9 mph 1017.9mb 88f 86f
6:00pm 9 10 mph 1017.8mb 87f 86f
5:00pm 9 10 mph 1018.2mb 87f 86f
4:00pm 10 11 mph 1017.9mb 88f 86f
3:00pm 8 9 mph 1018.3mb 88f 86f
2:00pm 7 9 mph 1019.1mb 88f 86f
1:00pm 9 10 mph 1019.7mb 89f 86f
12:00pm 6 7 mph 1020.1mb 88f 86f
11:00am 7 7 mph 1019.8mb 88f 86f
10:00am 7 8 mph 1019.5mb 88f 88f
9:00am 8 9 mph 1019.1mb 88f 86f
8:00am 3 3 mph 1018.8mb 88f 85f
7:00am 2 5 mph 1018.6mb 88f 82f
6:00am 5 8 mph 1017.9mb 87f 85f
5:00am 5 6 mph 1017.5mb 87f 85f
4:00am 5 6 mph 1017.1mb 87f 85f
3:00am 1 3 mph 1017.7mb 87f 85f
2:00am  -  1 mph 1018.2mb 88f 85f
1:00am 3 5 mph 1018.5mb 88f 85f
12:00am 9 10 mph 1018.5mb 89f 85f
Tue 08/15 11:00pm 6 6 mph 1018.3mb 89f 85f
10:00pm 9 10 mph 1017.7mb 89f 85f
9:00pm 7 8 mph 1017.5mb 89f 86f
8:00pm 7 8 mph 1017.1mb 89f 85f
7:00pm 8 9 mph 1016.7mb 89f 86f
6:00pm 7 8 mph 1016.3mb 88f 86f
5:00pm 8 10 mph 1016.1mb 88f 86f
4:00pm 7 8 mph 1016.4mb 88f 86f
3:00pm 9 10 mph 1016.7mb 88f 86f
2:00pm 6 6 mph 1017.6mb 88f 86f
1:00pm 6 7 mph 1018mb 88f 85f
12:00pm 5 6 mph 1018.3mb 89f 85f
11:00am 3 3 mph 1018mb 88f 86f
10:00am 6 7 mph 1017.7mb 88f 89f
9:00am 3 5 mph 1017.4mb 88f 88f
8:00am 7 8 mph 1016.8mb 88f 87f
7:00am 7 8 mph 1016.3mb 87f 84f
6:00am 6 7 mph 1016mb 87f 85f
5:00am 5 6 mph 1015.7mb 87f 85f
4:00am 7 8 mph 1015.6mb 87f 85f
3:00am 10 13 mph 1016mb 87f 85f
2:00am 8 9 mph 1016.5mb 87f 85f
1:00am 7 9 mph 1016.8mb 87f 85f
12:00am 7 7 mph 1016.7mb 88f 85f
Mon 08/14 11:00pm 7 7 mph 1016.9mb 88f 85f
10:00pm 3 5 mph 1016.4mb 88f 86f
9:00pm 6 6 mph 1016.2mb 88f 86f
7:00pm 9 10 mph 1015.7mb 88f 89f
6:00pm 11 13 mph 1015.1mb 89f 87f
5:00pm 8 9 mph 1015.7mb 88f 89f
4:00pm 9 9 mph 1015.6mb 88f 87f
3:00pm 8 10 mph 1015.8mb 88f 86f
2:00pm 8 9 mph 1016.7mb 88f 85f
1:00pm 6 6 mph 1017.3mb 88f 87f
12:00pm 3 5 mph 1017.7mb 88f 88f
11:00am 6 7 mph 1017.6mb 88f 89f
10:00am 8 10 mph 1017.2mb 88f 89f
9:00am 8 10 mph 1016.8mb 88f 88f
8:00am 9 11 mph 1016.5mb 88f 86f
7:00am 7 8 mph 1015.8mb 88f 84f
6:00am 6 7 mph 1015.5mb 88f 84f
5:00am 3 3 mph 1015.3mb 87f 84f
4:00am 5 5 mph 1015.1mb 87f 84f
3:00am 7 7 mph 1015.1mb 87f 84f
2:00am 5 6 mph 1015.8mb 87f 84f
1:00am 3 5 mph 1017mb 87f 85f
12:00am 2 3 mph 1017.6mb 87f 85f
Sun 08/13 11:00pm 2 3 mph 1017.3mb 88f 85f
10:00pm 8 9 mph 1017.1mb 88f 85f
9:00pm 15 15 mph 1017.2mb 88f 85f
8:00pm 13 13 mph 1016.7mb 88f 85f
7:00pm 11 11 mph 1015.7mb 89f 86f
6:00pm 10 11 mph 1015.6mb 88f 86f
5:00pm 11 14 mph 1015.5mb 88f 85f
4:00pm 11 13 mph 1015.5mb 88f 85f
3:00pm 14 15 mph 1016mb 88f 85f
2:00pm 6 7 mph 1016.7mb 88f 86f
1:00pm 2 3 mph 1017.1mb 87f 85f
12:00pm 3 3 mph 1017.4mb 87f 85f
11:00am  -  2 mph 1017.3mb 87f 87f
10:00am 3 6 mph 1017.1mb 88f 89f
9:00am 7 7 mph 1016.5mb 88f 89f
8:00am 9 11 mph 1016.2mb 88f 86f
7:00am 7 9 mph 1015.6mb 87f 84f
6:00am 6 8 mph 1015.3mb 87f 84f
5:00am 3 5 mph 1015.2mb 87f 84f